createdAt,value
2022-10-31T00:01:33.145Z,25.57
2022-10-31T00:04:01.488Z,22.73
2022-10-31T00:06:29.442Z,24.30
2022-10-31T00:08:59.650Z,24.97
2022-10-31T00:11:27.638Z,24.00
2022-10-31T00:13:55.747Z,21.67
2022-10-31T00:16:26.808Z,24.10
2022-10-31T00:18:56.211Z,20.47
2022-10-31T00:21:24.760Z,22.10
2022-10-31T00:23:52.587Z,22.80
2022-10-31T00:26:20.784Z,21.40
2022-10-31T00:28:49.468Z,19.60
2022-10-31T00:31:17.187Z,22.63
2022-10-31T00:33:46.274Z,20.47
2022-10-31T00:36:16.207Z,23.50
2022-10-31T00:38:44.997Z,20.80
2022-10-31T00:41:15.899Z,22.83
2022-10-31T00:43:44.349Z,23.53
2022-10-31T00:46:12.279Z,21.53
2022-10-31T00:48:40.111Z,22.40
2022-10-31T00:51:09.543Z,19.67
2022-10-31T00:53:37.250Z,21.67
2022-10-31T00:56:05.714Z,22.23
2022-10-31T00:58:33.473Z,24.27
2022-10-31T01:01:01.262Z,23.43
2022-10-31T01:03:31.016Z,21.57
2022-10-31T01:06:00.731Z,19.37
2022-10-31T01:08:30.111Z,28.20
2022-10-31T01:11:02.876Z,26.00
2022-10-31T01:13:30.792Z,27.77
2022-10-31T01:15:59.600Z,26.10
2022-10-31T01:18:27.425Z,26.30
2022-10-31T01:21:02.886Z,21.20
2022-10-31T01:23:32.363Z,16.60
2022-10-31T01:26:05.632Z,21.13
2022-10-31T01:28:33.403Z,19.07
2022-10-31T01:31:05.995Z,21.77
2022-10-31T01:33:34.016Z,27.80
2022-10-31T01:36:01.797Z,24.50
2022-10-31T01:38:29.982Z,18.33
2022-10-31T01:40:59.148Z,18.93
2022-10-31T01:43:43.949Z,19.43
2022-10-31T01:46:12.780Z,21.80
2022-10-31T01:48:43.401Z,24.23
2022-10-31T01:51:14.542Z,21.47
2022-10-31T01:53:43.749Z,17.40
2022-10-31T01:56:13.552Z,19.40
2022-10-31T01:58:41.911Z,19.53
2022-10-31T02:01:10.039Z,22.97
2022-10-31T02:03:38.044Z,22.23
2022-10-31T02:06:10.284Z,17.77
2022-10-31T02:08:39.854Z,23.40
2022-10-31T02:11:09.372Z,19.03
2022-10-31T02:13:39.410Z,20.53
2022-10-31T02:16:07.636Z,18.87
2022-10-31T02:18:35.496Z,23.87
2022-10-31T02:21:12.745Z,20.47
2022-10-31T02:24:10.196Z,24.50
2022-10-31T02:26:53.415Z,26.57
2022-10-31T02:29:49.529Z,25.53
2022-10-31T02:32:22.471Z,23.17
2022-10-31T02:34:58.683Z,20.73
2022-10-31T02:37:34.306Z,23.23
2022-10-31T02:40:12.456Z,21.67
2022-10-31T02:42:45.956Z,22.07
2022-10-31T02:45:19.897Z,19.43
2022-10-31T02:47:53.643Z,21.47
2022-10-31T02:50:26.098Z,18.60
2022-10-31T02:52:54.788Z,16.83
2022-10-31T02:55:46.482Z,20.13
2022-10-31T02:58:16.615Z,18.90
2022-10-31T03:01:01.779Z,16.33
2022-10-31T03:03:39.397Z,15.20
2022-10-31T03:06:15.659Z,16.27
2022-10-31T03:08:50.153Z,17.90
2022-10-31T03:11:22.676Z,15.43
2022-10-31T03:13:54.242Z,15.17
2022-10-31T03:16:29.037Z,18.83
2022-10-31T03:19:03.729Z,15.73
2022-10-31T03:21:36.246Z,20.17
2022-10-31T03:24:07.175Z,16.83
2022-10-31T03:26:37.928Z,19.07
2022-10-31T03:29:08.634Z,17.40
2022-10-31T03:31:40.838Z,14.83
2022-10-31T03:34:11.899Z,23.13
2022-10-31T03:36:42.005Z,19.03
2022-10-31T03:39:13.534Z,16.00
2022-10-31T03:41:45.249Z,19.77
2022-10-31T03:44:16.888Z,16.90
2022-10-31T03:46:45.792Z,14.43
2022-10-31T03:49:16.053Z,21.23
2022-10-31T03:51:49.796Z,12.30
2022-10-31T03:54:26.367Z,14.50
2022-10-31T03:56:58.010Z,15.63
2022-10-31T03:59:30.080Z,18.97
2022-10-31T04:02:02.909Z,16.53
2022-10-31T04:04:32.566Z,14.57
2022-10-31T04:07:03.302Z,13.13
2022-10-31T04:09:35.343Z,19.07
2022-10-31T04:12:07.511Z,16.33
2022-10-31T04:14:38.854Z,16.97
2022-10-31T04:17:11.457Z,14.83
2022-10-31T04:19:40.610Z,21.10
2022-10-31T04:22:08.467Z,20.57
2022-10-31T04:24:36.209Z,13.80
2022-10-31T04:27:03.908Z,21.37
2022-10-31T04:29:31.669Z,17.23
2022-10-31T04:31:59.607Z,16.27
2022-10-31T04:34:27.353Z,15.53
2022-10-31T04:36:56.478Z,18.53
2022-10-31T04:39:26.576Z,15.80
2022-10-31T04:41:54.730Z,14.13
2022-10-31T04:44:22.736Z,16.37
2022-10-31T04:46:50.572Z,15.73
2022-10-31T04:49:18.413Z,16.70
2022-10-31T04:51:46.195Z,17.60
2022-10-31T04:54:15.353Z,15.27
2022-10-31T04:56:43.096Z,17.27
2022-10-31T04:59:10.758Z,19.63
2022-10-31T05:01:38.770Z,20.33
2022-10-31T05:04:06.529Z,19.83
2022-10-31T05:06:34.221Z,17.33
2022-10-31T05:09:02.730Z,21.57
2022-10-31T05:11:31.780Z,18.03
2022-10-31T05:13:59.586Z,26.10
2022-10-31T05:16:27.357Z,17.87
2022-10-31T05:18:55.403Z,21.47
2022-10-31T05:21:23.190Z,20.00
2022-10-31T05:23:50.936Z,19.67
2022-10-31T05:26:18.718Z,19.97
2022-10-31T05:28:47.973Z,17.17
2022-10-31T05:31:15.843Z,21.23
2022-10-31T05:33:43.677Z,15.53
2022-10-31T05:36:11.918Z,18.67
2022-10-31T05:38:39.707Z,18.40
2022-10-31T05:41:07.511Z,17.27
2022-10-31T05:43:35.284Z,20.60
2022-10-31T05:46:04.619Z,22.03
2022-10-31T05:48:32.385Z,17.87
2022-10-31T05:51:01.686Z,19.70
2022-10-31T05:53:29.483Z,18.10
2022-10-31T05:55:57.261Z,20.77
2022-10-31T05:58:24.996Z,17.77
2022-10-31T06:00:52.729Z,17.20
2022-10-31T06:03:21.838Z,16.37
2022-10-31T06:05:52.525Z,17.73
2022-10-31T06:08:23.004Z,16.70
2022-10-31T06:10:50.821Z,17.47
2022-10-31T06:13:18.599Z,18.50
2022-10-31T06:15:46.373Z,17.17
2022-10-31T06:18:14.192Z,15.50
2022-10-31T06:20:43.319Z,15.03
2022-10-31T06:23:14.268Z,17.87
2022-10-31T06:25:42.025Z,14.83
2022-10-31T06:28:09.818Z,13.80
2022-10-31T06:30:37.650Z,18.27
2022-10-31T06:33:06.485Z,20.57
2022-10-31T06:35:39.081Z,18.83
2022-10-31T06:38:10.970Z,15.70
2022-10-31T06:40:38.727Z,15.07
2022-10-31T06:43:06.641Z,16.43
2022-10-31T06:45:34.526Z,14.73
2022-10-31T06:48:18.572Z,16.87
2022-10-31T06:50:46.579Z,18.77
2022-10-31T06:53:16.069Z,16.93
2022-10-31T06:55:44.408Z,21.97
2022-10-31T06:58:13.183Z,15.57
2022-10-31T07:00:41.077Z,13.23
2022-10-31T07:03:12.627Z,17.90
2022-10-31T07:05:41.067Z,14.57
2022-10-31T07:08:10.872Z,14.67
2022-10-31T07:10:42.201Z,14.80
2022-10-31T07:13:13.899Z,12.47
2022-10-31T07:15:43.393Z,14.33
2022-10-31T07:18:13.102Z,13.97
2022-10-31T07:20:40.922Z,14.90
2022-10-31T07:23:09.883Z,15.03
2022-10-31T07:25:37.617Z,11.77
2022-10-31T07:28:07.081Z,15.77
2022-10-31T07:30:35.310Z,12.77
2022-10-31T07:33:03.079Z,13.17
2022-10-31T07:35:31.762Z,15.50
2022-10-31T07:38:00.295Z,17.53
2022-10-31T07:40:28.246Z,15.27
2022-10-31T07:42:56.021Z,12.30
2022-10-31T07:45:25.109Z,19.93
2022-10-31T07:47:54.532Z,13.30
2022-10-31T07:50:23.883Z,18.27
2022-10-31T07:53:00.586Z,18.83
2022-10-31T07:55:28.834Z,17.13
2022-10-31T07:58:01.019Z,16.20
2022-10-31T08:00:30.970Z,13.03
2022-10-31T08:03:00.285Z,16.67
2022-10-31T08:05:28.870Z,15.70
2022-10-31T08:07:56.710Z,17.30
2022-10-31T08:10:24.956Z,14.00
2022-10-31T08:12:58.537Z,14.73
2022-10-31T08:15:27.212Z,17.37
2022-10-31T08:17:56.521Z,16.70
2022-10-31T08:20:24.743Z,14.17
2022-10-31T08:22:56.908Z,13.87
2022-10-31T08:25:25.742Z,14.27
2022-10-31T08:27:54.008Z,16.83
2022-10-31T08:30:22.677Z,13.77
2022-10-31T08:33:01.047Z,16.70
2022-10-31T08:35:29.160Z,19.47
2022-10-31T08:37:57.379Z,12.73
2022-10-31T08:40:26.331Z,18.10
2022-10-31T08:42:59.104Z,16.90
2022-10-31T08:45:28.040Z,15.60
2022-10-31T08:47:59.979Z,14.93
2022-10-31T08:50:30.802Z,17.87
2022-10-31T08:53:05.617Z,16.70
2022-10-31T08:55:35.573Z,14.60
2022-10-31T08:58:04.778Z,16.30
2022-10-31T09:00:33.038Z,17.47
2022-10-31T09:03:02.502Z,16.03
2022-10-31T09:05:32.606Z,18.47
2022-10-31T09:08:01.789Z,15.50
2022-10-31T09:10:35.060Z,17.30
2022-10-31T09:13:08.402Z,18.40
2022-10-31T09:15:39.232Z,15.50
2022-10-31T09:18:07.868Z,24.00
2022-10-31T09:20:38.918Z,15.20
2022-10-31T09:23:08.972Z,13.20
2022-10-31T09:25:37.020Z,17.67
2022-10-31T09:28:06.829Z,19.77
2022-10-31T09:30:36.173Z,16.43
2022-10-31T09:33:05.759Z,13.43
2022-10-31T09:35:33.908Z,15.17
2022-10-31T09:38:05.874Z,17.93
2022-10-31T09:40:36.978Z,15.97
2022-10-31T09:43:14.910Z,17.77
2022-10-31T09:45:50.648Z,13.17
2022-10-31T09:48:41.731Z,13.73
2022-10-31T09:51:12.642Z,14.00
2022-10-31T09:53:46.335Z,11.23
2022-10-31T09:56:17.667Z,11.70
2022-10-31T09:58:47.510Z,13.57
2022-10-31T10:01:30.732Z,12.10
2022-10-31T10:04:03.891Z,13.40
2022-10-31T10:06:36.930Z,15.20
2022-10-31T10:09:06.373Z,11.87
2022-10-31T10:11:51.339Z,11.17
2022-10-31T10:14:35.979Z,14.97
2022-10-31T10:17:20.966Z,14.57
2022-10-31T10:20:22.770Z,15.47
2022-10-31T10:22:58.787Z,12.03
2022-10-31T10:25:35.842Z,14.90
2022-10-31T10:28:15.643Z,16.73
2022-10-31T10:30:48.295Z,15.13
2022-10-31T10:33:23.585Z,16.33
2022-10-31T10:35:53.761Z,15.43
2022-10-31T10:38:32.079Z,14.83
2022-10-31T10:41:03.852Z,12.67
2022-10-31T10:43:35.460Z,12.97
2022-10-31T10:46:42.856Z,14.00
2022-10-31T10:49:18.891Z,12.17
2022-10-31T10:52:02.655Z,15.40
2022-10-31T10:55:02.017Z,15.17
2022-10-31T10:57:55.097Z,12.90
2022-10-31T11:00:26.275Z,16.43
2022-10-31T11:02:54.644Z,14.17
2022-10-31T11:05:26.939Z,15.03
2022-10-31T11:07:57.277Z,18.60
2022-10-31T11:10:25.164Z,15.80
2022-10-31T11:13:24.235Z,12.97
2022-10-31T11:15:59.032Z,14.90
2022-10-31T11:18:29.006Z,14.63
2022-10-31T11:20:58.661Z,15.50
2022-10-31T11:23:28.728Z,17.53
2022-10-31T11:25:59.016Z,14.33
2022-10-31T11:28:30.544Z,17.87
2022-10-31T11:31:00.442Z,15.83
2022-10-31T11:33:33.367Z,15.60
2022-10-31T11:36:03.174Z,17.20
2022-10-31T11:38:37.030Z,17.80
2022-10-31T11:41:12.830Z,13.83
2022-10-31T11:43:50.427Z,21.90
2022-10-31T11:46:23.456Z,15.07
2022-10-31T11:48:53.173Z,19.30
2022-10-31T11:51:29.191Z,14.50
2022-10-31T11:54:02.672Z,17.50
2022-10-31T11:56:40.364Z,14.50
2022-10-31T11:59:25.252Z,16.73
2022-10-31T12:01:55.012Z,14.13
2022-10-31T12:04:33.411Z,12.93
2022-10-31T12:07:01.416Z,14.53
2022-10-31T12:09:31.289Z,14.27
2022-10-31T12:12:18.000Z,14.10
2022-10-31T12:14:56.598Z,16.70
2022-10-31T12:17:31.159Z,12.67
2022-10-31T12:20:08.926Z,18.50
2022-10-31T12:22:49.923Z,15.27
2022-10-31T12:25:36.575Z,14.23
2022-10-31T12:28:29.649Z,12.13
2022-10-31T12:31:13.549Z,11.00
2022-10-31T12:33:52.809Z,9.70
2022-10-31T12:36:35.078Z,12.70
2022-10-31T12:39:26.412Z,12.30
2022-10-31T12:42:01.152Z,10.77
2022-10-31T12:44:55.670Z,9.73
2022-10-31T12:47:48.424Z,11.93
2022-10-31T12:50:31.157Z,10.10
2022-10-31T12:53:10.087Z,10.57
2022-10-31T12:55:47.080Z,12.30
2022-10-31T12:58:22.556Z,10.90
2022-10-31T13:00:55.583Z,9.90
2022-10-31T13:03:31.315Z,11.13
2022-10-31T13:06:04.280Z,11.00
2022-10-31T13:08:41.595Z,8.80
2022-10-31T13:11:14.557Z,10.60
2022-10-31T13:13:46.417Z,11.00
2022-10-31T13:16:18.621Z,16.23
2022-10-31T13:18:52.300Z,11.00
2022-10-31T13:21:24.286Z,9.97
2022-10-31T13:23:53.357Z,13.43
2022-10-31T13:26:29.084Z,11.23
2022-10-31T13:29:04.987Z,9.20
2022-10-31T13:31:32.999Z,11.80
2022-10-31T13:34:07.285Z,8.63
2022-10-31T13:36:42.022Z,11.67
2022-10-31T13:39:22.761Z,11.03
2022-10-31T13:41:55.748Z,9.57
2022-10-31T13:44:25.913Z,9.60
2022-10-31T13:46:54.893Z,14.73
2022-10-31T13:49:40.342Z,10.63
2022-10-31T13:52:24.320Z,9.20
2022-10-31T13:54:56.877Z,12.97
2022-10-31T13:57:34.583Z,14.27
2022-10-31T14:00:05.784Z,9.10
2022-10-31T14:02:36.240Z,10.07
2022-10-31T14:05:11.326Z,11.70
2022-10-31T14:07:45.789Z,7.17
2022-10-31T14:10:27.708Z,17.67
2022-10-31T14:13:05.638Z,11.77
2022-10-31T14:15:34.258Z,11.70
2022-10-31T14:18:04.969Z,9.53
2022-10-31T14:20:40.512Z,11.20
2022-10-31T14:23:41.521Z,11.63
2022-10-31T14:26:31.947Z,10.87
2022-10-31T14:29:01.586Z,12.23
2022-10-31T14:31:35.748Z,11.20
2022-10-31T14:34:20.160Z,8.87
2022-10-31T14:37:01.613Z,8.67
2022-10-31T14:39:36.885Z,10.27
2022-10-31T14:42:22.639Z,12.43
2022-10-31T14:45:17.736Z,12.97
2022-10-31T14:48:06.905Z,19.27
2022-10-31T14:50:46.301Z,15.00
2022-10-31T14:53:20.427Z,10.23
2022-10-31T14:55:50.430Z,12.43
2022-10-31T14:58:22.509Z,11.70
2022-10-31T15:00:52.871Z,12.97
2022-10-31T15:03:26.850Z,10.20
2022-10-31T15:05:57.784Z,12.70
2022-10-31T15:08:36.995Z,9.47
2022-10-31T15:11:12.170Z,10.43
2022-10-31T15:13:45.531Z,11.53
2022-10-31T15:16:16.176Z,11.77
2022-10-31T15:18:50.822Z,11.03
2022-10-31T15:21:21.290Z,9.03
2022-10-31T15:23:53.165Z,10.40
2022-10-31T15:26:24.547Z,11.13
2022-10-31T15:29:03.063Z,15.53
2022-10-31T15:31:32.919Z,9.53
2022-10-31T15:34:05.740Z,14.07
2022-10-31T15:36:37.367Z,9.53
2022-10-31T15:39:07.693Z,10.93
2022-10-31T15:41:38.812Z,10.03
2022-10-31T15:44:14.705Z,8.90
2022-10-31T15:46:42.893Z,14.93
2022-10-31T15:49:28.257Z,10.97
2022-10-31T15:52:02.310Z,13.97
2022-10-31T15:54:31.858Z,12.50
2022-10-31T15:56:59.819Z,11.47
2022-10-31T15:59:30.946Z,11.40
2022-10-31T16:02:03.234Z,14.23
2022-10-31T16:04:31.850Z,9.70
2022-10-31T16:07:02.441Z,10.37
2022-10-31T16:09:31.613Z,14.67
2022-10-31T16:12:00.488Z,9.53
2022-10-31T16:14:30.734Z,11.77
2022-10-31T16:17:00.711Z,12.37
2022-10-31T16:19:32.856Z,13.10
2022-10-31T16:22:06.930Z,11.20
2022-10-31T16:24:46.508Z,11.67
2022-10-31T16:27:40.161Z,14.90
2022-10-31T16:30:29.939Z,15.37
2022-10-31T16:32:59.996Z,15.93
2022-10-31T16:35:29.652Z,13.70
2022-10-31T16:37:57.725Z,15.70
2022-10-31T16:40:27.180Z,16.87
2022-10-31T16:42:55.110Z,15.33
2022-10-31T16:45:25.203Z,14.30
2022-10-31T16:47:52.995Z,13.33
2022-10-31T16:50:23.618Z,13.90
2022-10-31T16:53:12.756Z,18.10
2022-10-31T16:55:46.431Z,19.70
2022-10-31T16:58:25.275Z,15.27
2022-10-31T17:00:54.657Z,19.43
2022-10-31T17:03:22.533Z,15.63
2022-10-31T17:05:50.660Z,15.20
2022-10-31T17:08:18.840Z,15.77
2022-10-31T17:10:56.336Z,13.87
2022-10-31T17:13:26.331Z,17.07
2022-10-31T17:15:56.758Z,16.27
2022-10-31T17:18:27.593Z,15.10
2022-10-31T17:20:59.116Z,16.03
2022-10-31T17:23:27.269Z,15.47
2022-10-31T17:25:56.788Z,20.57
2022-10-31T17:28:25.056Z,15.97
2022-10-31T17:30:54.487Z,13.17
2022-10-31T17:33:22.324Z,14.47
2022-10-31T17:35:50.180Z,18.80
2022-10-31T17:38:18.053Z,14.23
2022-10-31T17:40:46.059Z,15.57
2022-10-31T17:43:15.119Z,15.83
2022-10-31T17:45:43.418Z,17.03
2022-10-31T17:48:12.794Z,15.40
2022-10-31T17:50:41.494Z,18.37
2022-10-31T17:53:09.401Z,14.87
2022-10-31T17:55:37.791Z,17.27
2022-10-31T17:58:06.257Z,13.67
2022-10-31T18:00:35.481Z,17.30
2022-10-31T18:03:04.390Z,17.53
2022-10-31T18:05:33.107Z,18.03
2022-10-31T18:08:04.047Z,18.77
2022-10-31T18:10:35.994Z,20.27
2022-10-31T18:13:04.168Z,18.83
2022-10-31T18:15:32.318Z,19.87
2022-10-31T18:18:01.713Z,25.47
2022-10-31T18:20:29.603Z,21.13
2022-10-31T18:22:57.388Z,19.17
2022-10-31T18:25:25.198Z,24.67
2022-10-31T18:27:58.048Z,23.37
2022-10-31T18:30:25.981Z,24.43
2022-10-31T18:32:53.712Z,20.07
2022-10-31T18:35:22.799Z,21.20
2022-10-31T18:37:50.772Z,26.37
2022-10-31T18:40:18.641Z,27.60
2022-10-31T18:42:46.394Z,24.00
2022-10-31T18:45:32.253Z,19.50
2022-10-31T18:48:02.305Z,23.13
2022-10-31T18:50:31.622Z,25.57
2022-10-31T18:52:59.667Z,21.60
2022-10-31T18:55:27.648Z,21.23
2022-10-31T18:57:55.402Z,25.43
2022-10-31T19:00:23.256Z,24.57
2022-10-31T19:02:51.056Z,27.37
2022-10-31T19:05:19.108Z,25.43
2022-10-31T19:07:48.529Z,26.10
2022-10-31T19:10:16.276Z,20.47
2022-10-31T19:12:44.082Z,22.67
2022-10-31T19:15:12.250Z,22.67
2022-10-31T19:17:39.956Z,25.30
2022-10-31T19:20:09.061Z,26.83
2022-10-31T19:22:36.813Z,22.73
2022-10-31T19:25:11.057Z,26.67
2022-10-31T19:27:39.439Z,21.47
2022-10-31T19:30:08.618Z,22.07
2022-10-31T19:32:36.575Z,22.00
2022-10-31T19:35:08.877Z,23.23
2022-10-31T19:37:36.628Z,23.17
2022-10-31T19:40:07.748Z,26.03
2022-10-31T19:42:35.580Z,26.43
2022-10-31T19:45:03.575Z,23.63
2022-10-31T19:47:31.353Z,26.27
2022-10-31T19:49:59.140Z,26.10
2022-10-31T19:52:27.018Z,25.43
2022-10-31T19:54:54.873Z,24.00
2022-10-31T19:57:48.360Z,25.73
2022-10-31T20:00:13.042Z,26.80
2022-10-31T20:02:40.840Z,26.00
2022-10-31T20:05:09.313Z,27.07
2022-10-31T20:07:37.220Z,28.57
2022-10-31T20:10:05.396Z,27.97
2022-10-31T20:12:35.175Z,26.43
2022-10-31T20:15:02.954Z,22.40
2022-10-31T20:17:30.818Z,23.83
2022-10-31T20:19:58.950Z,23.33
2022-10-31T20:22:26.828Z,22.80
2022-10-31T20:24:54.610Z,22.83
2022-10-31T20:27:22.453Z,22.50
2022-10-31T20:29:51.590Z,25.53
2022-10-31T20:32:21.332Z,22.23
2022-10-31T20:34:49.468Z,24.23
2022-10-31T20:37:17.313Z,25.07
2022-10-31T20:39:45.065Z,23.73
2022-10-31T20:42:13.148Z,23.57
2022-10-31T20:44:40.978Z,22.10
2022-10-31T20:47:10.504Z,24.77
2022-10-31T20:49:38.737Z,22.23
2022-10-31T20:52:06.698Z,23.17
2022-10-31T20:54:34.486Z,29.77
2022-10-31T20:57:02.725Z,25.13
2022-10-31T20:59:30.626Z,24.00
2022-10-31T21:02:00.384Z,30.70
2022-10-31T21:04:29.845Z,20.30
2022-10-31T21:06:57.596Z,23.00
2022-10-31T21:09:25.355Z,19.90
2022-10-31T21:11:53.110Z,22.03
2022-10-31T21:14:21.061Z,21.00
2022-10-31T21:16:48.768Z,23.03
2022-10-31T21:19:16.591Z,21.97
2022-10-31T21:21:45.723Z,22.40
2022-10-31T21:24:16.400Z,25.40
2022-10-31T21:26:46.292Z,22.83
2022-10-31T21:29:15.398Z,25.80
2022-10-31T21:31:43.869Z,22.40
2022-10-31T21:34:12.514Z,28.83
2022-10-31T21:36:40.677Z,27.43
2022-10-31T21:39:10.613Z,24.77
2022-10-31T21:41:38.377Z,26.30
2022-10-31T21:44:06.433Z,32.43
2022-10-31T21:46:35.070Z,23.97
2022-10-31T21:49:04.177Z,29.63
2022-10-31T21:51:34.613Z,30.73
2022-10-31T21:54:20.425Z,29.17
2022-10-31T21:56:49.652Z,30.20
2022-10-31T21:59:17.580Z,29.17
2022-10-31T22:01:45.433Z,25.63
2022-10-31T22:04:13.364Z,29.53
2022-10-31T22:06:41.158Z,30.17
2022-10-31T22:09:11.598Z,28.20
2022-10-31T22:11:40.610Z,30.47
2022-10-31T22:14:12.699Z,26.53
2022-10-31T22:16:41.329Z,26.23
2022-10-31T22:19:11.720Z,27.00
2022-10-31T22:21:42.615Z,26.00
2022-10-31T22:24:10.931Z,31.27
2022-10-31T22:26:40.277Z,27.40
2022-10-31T22:29:15.078Z,27.20
2022-10-31T22:31:44.936Z,26.27
2022-10-31T22:34:14.639Z,31.47
2022-10-31T22:36:43.277Z,24.97
2022-10-31T22:39:12.778Z,26.77
2022-10-31T22:41:40.921Z,29.03
2022-10-31T22:44:10.335Z,30.70
2022-10-31T22:46:40.106Z,28.63
2022-10-31T22:49:10.832Z,38.30
2022-10-31T22:51:40.401Z,33.07
2022-10-31T22:54:12.422Z,26.50
2022-10-31T22:56:40.205Z,38.53
2022-10-31T22:59:08.000Z,34.50
2022-10-31T23:01:37.246Z,42.60
2022-10-31T23:04:05.232Z,38.17
2022-10-31T23:06:34.139Z,45.57
2022-10-31T23:09:03.510Z,40.37
2022-10-31T23:11:33.527Z,39.97
2022-10-31T23:14:09.359Z,32.87
2022-10-31T23:16:41.944Z,33.33
2022-10-31T23:19:11.080Z,34.60
2022-10-31T23:21:56.322Z,34.07
2022-10-31T23:24:29.547Z,36.63
2022-10-31T23:27:07.775Z,32.73
2022-10-31T23:29:41.103Z,31.83
2022-10-31T23:32:13.250Z,30.57
2022-10-31T23:34:41.277Z,31.27
2022-10-31T23:37:09.530Z,30.53
2022-10-31T23:39:37.601Z,30.77
2022-10-31T23:42:05.885Z,28.27
2022-10-31T23:44:33.685Z,30.03
2022-10-31T23:47:01.737Z,33.43
2022-10-31T23:49:30.823Z,31.93
2022-10-31T23:51:59.020Z,32.70
2022-10-31T23:54:27.890Z,31.80
2022-10-31T23:56:56.375Z,30.63
2022-10-31T23:59:24.073Z,31.40
